createdAt,value
2023-04-16T00:00:12.910Z,92.99
2023-04-16T00:01:12.897Z,92.99
2023-04-16T00:02:13.108Z,92.89
2023-04-16T00:03:13.092Z,92.99
2023-04-16T00:04:12.969Z,92.79
2023-04-16T00:05:12.846Z,92.79
2023-04-16T00:06:12.854Z,92.69
2023-04-16T00:07:12.802Z,92.58
2023-04-16T00:08:12.808Z,92.48
2023-04-16T00:09:12.811Z,92.38
2023-04-16T00:10:12.776Z,92.38
2023-04-16T00:11:12.750Z,92.48
2023-04-16T00:12:13.418Z,92.48
2023-04-16T00:13:12.727Z,92.48
2023-04-16T00:14:12.743Z,92.69
2023-04-16T00:15:12.714Z,92.69
2023-04-16T00:16:12.701Z,92.79
2023-04-16T00:17:12.724Z,93.20
2023-04-16T00:18:12.669Z,93.61
2023-04-16T00:19:12.650Z,94.02
2023-04-16T00:20:12.676Z,94.33
2023-04-16T00:21:12.655Z,94.64
2023-04-16T00:22:12.630Z,94.74
2023-04-16T00:23:12.634Z,94.74
2023-04-16T00:24:12.654Z,94.54
2023-04-16T00:25:12.601Z,94.23
2023-04-16T00:26:12.582Z,94.23
2023-04-16T00:27:12.593Z,94.12
2023-04-16T00:28:12.542Z,94.02
2023-04-16T00:29:12.544Z,93.82
2023-04-16T00:30:12.551Z,93.82
2023-04-16T00:31:12.509Z,93.61
2023-04-16T00:32:12.497Z,93.61
2023-04-16T00:33:12.463Z,93.51
2023-04-16T00:34:12.463Z,93.20
2023-04-16T00:35:12.447Z,92.99
2023-04-16T00:36:12.455Z,92.48
2023-04-16T00:37:12.409Z,91.86
2023-04-16T00:38:12.428Z,91.25
2023-04-16T00:39:12.389Z,90.53
2023-04-16T00:40:12.380Z,90.12
2023-04-16T00:41:12.360Z,90.12
2023-04-16T00:42:12.360Z,90.32
2023-04-16T00:43:12.365Z,90.32
2023-04-16T00:44:12.324Z,90.32
2023-04-16T00:45:12.316Z,90.42
2023-04-16T00:46:12.326Z,90.42
2023-04-16T00:47:12.284Z,90.83
2023-04-16T00:48:12.276Z,91.55
2023-04-16T00:49:12.259Z,92.54
2023-04-16T00:50:12.235Z,93.26
2023-04-16T00:51:12.229Z,93.98
2023-04-16T00:52:12.238Z,94.29
2023-04-16T00:53:12.478Z,94.39
2023-04-16T00:54:12.186Z,94.49
2023-04-16T00:55:12.198Z,94.59
2023-04-16T00:56:12.165Z,95.01
2023-04-16T00:57:12.149Z,95.83
2023-04-16T00:58:12.178Z,96.14
2023-04-16T00:59:12.213Z,96.23
2023-04-16T01:00:12.190Z,96.44
2023-04-16T01:01:12.121Z,96.44
2023-04-16T01:02:12.196Z,96.14
2023-04-16T01:03:12.193Z,95.62
2023-04-16T01:04:12.157Z,95.31
2023-04-16T01:05:12.061Z,95.10
2023-04-16T01:06:12.025Z,94.95
2023-04-16T01:07:12.038Z,94.74
2023-04-16T01:08:12.038Z,94.43
2023-04-16T01:09:12.024Z,94.33
2023-04-16T01:10:11.983Z,94.12
2023-04-16T01:11:11.972Z,93.98
2023-04-16T01:12:11.978Z,93.77
2023-04-16T01:13:11.953Z,93.87
2023-04-16T01:14:11.962Z,94.08
2023-04-16T01:15:11.922Z,94.39
2023-04-16T01:16:11.928Z,95.10
2023-04-16T01:17:11.905Z,95.42
2023-04-16T01:18:11.899Z,95.62
2023-04-16T01:19:12.084Z,95.72
2023-04-16T01:20:11.848Z,95.83
2023-04-16T01:21:11.849Z,95.83
2023-04-16T01:22:11.844Z,95.83
2023-04-16T01:23:11.838Z,95.72
2023-04-16T01:24:11.806Z,95.62
2023-04-16T01:25:11.799Z,95.62
2023-04-16T01:26:11.766Z,95.62
2023-04-16T01:27:11.771Z,95.52
2023-04-16T01:28:11.749Z,95.52
2023-04-16T01:29:11.738Z,95.62
2023-04-16T01:30:11.739Z,95.93
2023-04-16T01:31:11.737Z,96.14
2023-04-16T01:32:11.799Z,96.34
2023-04-16T01:33:11.687Z,96.55
2023-04-16T01:34:11.690Z,96.65
2023-04-16T01:35:11.673Z,96.85
2023-04-16T01:36:11.681Z,96.95
2023-04-16T01:37:11.644Z,96.85
2023-04-16T01:38:11.648Z,96.95
2023-04-16T01:39:11.690Z,96.85
2023-04-16T01:40:11.598Z,96.75
2023-04-16T01:41:11.585Z,96.75
2023-04-16T01:42:11.584Z,96.75
2023-04-16T01:43:11.585Z,96.75
2023-04-16T01:44:11.590Z,96.65
2023-04-16T01:45:11.542Z,96.55
2023-04-16T01:46:11.546Z,96.44
2023-04-16T01:47:11.495Z,96.34
2023-04-16T01:48:11.496Z,96.23
2023-04-16T01:49:11.821Z,96.23
2023-04-16T01:50:11.506Z,96.23
2023-04-16T01:51:11.443Z,96.14
2023-04-16T01:52:11.443Z,96.14
2023-04-16T01:53:11.438Z,96.14
2023-04-16T01:54:11.417Z,96.03
2023-04-16T01:55:11.396Z,96.14
2023-04-16T01:56:11.385Z,96.03
2023-04-16T01:57:11.371Z,96.14
2023-04-16T01:58:11.371Z,96.14
2023-04-16T01:59:11.613Z,96.03
2023-04-16T02:00:11.349Z,96.03
2023-04-16T02:01:11.378Z,96.14
2023-04-16T02:02:11.540Z,96.14
2023-04-16T02:03:11.451Z,96.23
2023-04-16T02:04:11.333Z,96.44
2023-04-16T02:05:11.286Z,96.55
2023-04-16T02:06:11.291Z,96.65
2023-04-16T02:07:11.341Z,96.65
2023-04-16T02:08:11.244Z,96.85
2023-04-16T02:09:11.444Z,96.85
2023-04-16T02:10:11.218Z,96.85
2023-04-16T02:11:11.202Z,96.75
2023-04-16T02:12:11.210Z,96.75
2023-04-16T02:13:11.178Z,96.65
2023-04-16T02:14:11.226Z,96.44
2023-04-16T02:15:11.120Z,96.44
2023-04-16T02:16:11.148Z,96.44
2023-04-16T02:17:11.095Z,96.55
2023-04-16T02:18:11.147Z,96.70
2023-04-16T02:19:11.288Z,96.81
2023-04-16T02:20:11.071Z,96.81
2023-04-16T02:21:11.065Z,96.85
2023-04-16T02:22:11.038Z,96.75
2023-04-16T02:23:11.029Z,96.55
2023-04-16T02:24:10.999Z,96.34
2023-04-16T02:25:10.988Z,96.23
2023-04-16T02:26:10.976Z,96.03
2023-04-16T02:27:10.991Z,95.83
2023-04-16T02:28:10.955Z,95.62
2023-04-16T02:29:11.131Z,95.42
2023-04-16T02:30:10.942Z,95.21
2023-04-16T02:31:10.903Z,95.10
2023-04-16T02:32:10.930Z,94.90
2023-04-16T02:33:10.893Z,94.70
2023-04-16T02:34:10.937Z,94.59
2023-04-16T02:35:10.860Z,94.39
2023-04-16T02:36:10.850Z,94.18
2023-04-16T02:37:10.837Z,94.08
2023-04-16T02:38:10.885Z,93.87
2023-04-16T02:39:11.083Z,93.77
2023-04-16T02:40:10.810Z,93.73
2023-04-16T02:41:10.815Z,93.73
2023-04-16T02:42:10.770Z,93.63
2023-04-16T02:43:10.765Z,93.63
2023-04-16T02:44:10.736Z,93.63
2023-04-16T02:45:10.741Z,93.52
2023-04-16T02:46:10.809Z,93.52
2023-04-16T02:47:10.715Z,93.42
2023-04-16T02:48:10.711Z,93.42
2023-04-16T02:49:10.912Z,93.42
2023-04-16T02:50:10.659Z,93.42
2023-04-16T02:51:10.658Z,93.42
2023-04-16T02:52:10.624Z,93.32
2023-04-16T02:53:10.661Z,93.12
2023-04-16T02:54:10.606Z,93.32
2023-04-16T02:55:10.638Z,93.63
2023-04-16T02:56:10.607Z,93.83
2023-04-16T02:57:10.568Z,93.83
2023-04-16T02:58:10.574Z,93.93
2023-04-16T02:59:10.753Z,94.04
2023-04-16T03:00:10.528Z,94.14
2023-04-16T03:01:10.536Z,94.45
2023-04-16T03:02:10.552Z,94.55
2023-04-16T03:03:10.507Z,94.55
2023-04-16T03:04:10.496Z,94.65
2023-04-16T03:05:10.497Z,94.76
2023-04-16T03:06:10.454Z,94.76
2023-04-16T03:07:10.442Z,94.65
2023-04-16T03:08:10.432Z,94.65
2023-04-16T03:09:10.647Z,94.65
2023-04-16T03:10:10.406Z,94.65
2023-04-16T03:11:10.419Z,94.65
2023-04-16T03:12:10.376Z,94.65
2023-04-16T03:13:10.382Z,94.65
2023-04-16T03:14:10.335Z,94.65
2023-04-16T03:15:10.346Z,94.55
2023-04-16T03:16:10.393Z,94.45
2023-04-16T03:17:10.314Z,94.45
2023-04-16T03:18:10.306Z,94.34
2023-04-16T03:19:10.437Z,94.34
2023-04-16T03:20:10.274Z,94.24
2023-04-16T03:21:10.264Z,94.04
2023-04-16T03:22:10.247Z,94.14
2023-04-16T03:23:10.236Z,94.24
2023-04-16T03:24:10.218Z,94.34
2023-04-16T03:25:10.230Z,94.55
2023-04-16T03:26:10.191Z,94.76
2023-04-16T03:27:10.192Z,94.96
2023-04-16T03:28:10.159Z,95.27
2023-04-16T03:29:10.342Z,95.47
2023-04-16T03:30:10.154Z,95.68
2023-04-16T03:31:10.153Z,95.68
2023-04-16T03:32:10.119Z,95.68
2023-04-16T03:33:10.129Z,95.68
2023-04-16T03:34:10.110Z,95.57
2023-04-16T03:35:10.076Z,95.47
2023-04-16T03:36:10.073Z,95.42
2023-04-16T03:37:10.060Z,95.31
2023-04-16T03:38:10.030Z,95.01
2023-04-16T03:39:10.294Z,95.10
2023-04-16T03:40:10.021Z,95.10
2023-04-16T03:41:10.024Z,95.01
2023-04-16T03:42:09.988Z,94.90
2023-04-16T03:43:09.977Z,94.80
2023-04-16T03:44:09.951Z,94.49
2023-04-16T03:45:09.935Z,94.39
2023-04-16T03:46:09.944Z,94.29
2023-04-16T03:47:09.950Z,94.18
2023-04-16T03:48:09.907Z,94.08
2023-04-16T03:49:10.037Z,94.08
2023-04-16T03:50:09.885Z,93.87
2023-04-16T03:51:09.868Z,93.67
2023-04-16T03:52:09.887Z,93.36
2023-04-16T03:53:09.846Z,93.05
2023-04-16T03:54:09.821Z,92.64
2023-04-16T03:55:09.814Z,92.33
2023-04-16T03:56:09.818Z,92.13
2023-04-16T03:57:09.798Z,91.61
2023-04-16T03:58:09.773Z,91.31
2023-04-16T03:59:09.978Z,91.10
2023-04-16T04:00:09.772Z,90.89
2023-04-16T04:01:09.731Z,90.59
2023-04-16T04:02:09.882Z,90.28
2023-04-16T04:03:09.917Z,90.08
2023-04-16T04:04:09.928Z,89.97
2023-04-16T04:05:09.709Z,89.97
2023-04-16T04:06:09.662Z,89.97
2023-04-16T04:07:09.661Z,89.87
2023-04-16T04:08:09.633Z,89.87
2023-04-16T04:09:09.871Z,89.87
2023-04-16T04:10:09.620Z,89.87
2023-04-16T04:11:09.617Z,89.87
2023-04-16T04:12:09.602Z,89.87
2023-04-16T04:13:09.578Z,89.87
2023-04-16T04:14:09.580Z,89.87
2023-04-16T04:15:09.563Z,89.46
2023-04-16T04:16:09.554Z,89.15
2023-04-16T04:17:09.558Z,88.84
2023-04-16T04:18:09.507Z,89.42
2023-04-16T04:19:09.686Z,89.93
2023-04-16T04:20:09.489Z,90.55
2023-04-16T04:21:09.503Z,90.65
2023-04-16T04:22:09.465Z,90.55
2023-04-16T04:23:09.478Z,90.55
2023-04-16T04:24:09.445Z,90.95
2023-04-16T04:25:09.410Z,90.95
2023-04-16T04:26:09.453Z,90.95
2023-04-16T04:27:09.406Z,91.06
2023-04-16T04:28:09.409Z,90.95
2023-04-16T04:29:09.641Z,91.37
2023-04-16T04:30:09.363Z,91.37
2023-04-16T04:31:09.346Z,91.47
2023-04-16T04:32:09.335Z,91.57
2023-04-16T04:33:09.315Z,91.57
2023-04-16T04:34:09.289Z,91.37
2023-04-16T04:35:09.291Z,91.06
2023-04-16T04:36:09.296Z,91.06
2023-04-16T04:37:09.262Z,91.06
2023-04-16T04:38:09.231Z,90.95
2023-04-16T04:39:09.372Z,90.85
2023-04-16T04:40:09.232Z,90.85
2023-04-16T04:41:09.233Z,90.75
2023-04-16T04:42:09.201Z,90.85
2023-04-16T04:43:09.189Z,90.55
2023-04-16T04:44:09.163Z,90.44
2023-04-16T04:45:09.148Z,90.44
2023-04-16T04:46:09.208Z,90.55
2023-04-16T04:47:09.128Z,90.44
2023-04-16T04:48:09.111Z,90.03
2023-04-16T04:49:09.258Z,90.14
2023-04-16T04:50:09.106Z,90.44
2023-04-16T04:51:09.117Z,90.14
2023-04-16T04:52:09.067Z,89.52
2023-04-16T04:53:09.049Z,89.42
2023-04-16T04:54:09.031Z,89.31
2023-04-16T04:55:09.021Z,89.31
2023-04-16T04:56:12.711Z,89.52
2023-04-16T04:57:08.998Z,89.52
2023-04-16T04:58:09.007Z,89.62
2023-04-16T04:59:09.207Z,89.52
2023-04-16T05:00:08.956Z,89.11
2023-04-16T05:01:08.981Z,89.01
2023-04-16T05:02:08.966Z,89.42
2023-04-16T05:03:08.990Z,89.93
2023-04-16T05:04:08.948Z,90.14
2023-04-16T05:05:08.925Z,90.24
2023-04-16T05:06:08.894Z,90.65
2023-04-16T05:07:08.872Z,90.75
2023-04-16T05:08:08.865Z,90.65
2023-04-16T05:09:09.160Z,90.55
2023-04-16T05:10:08.819Z,90.44
2023-04-16T05:11:08.820Z,90.34
2023-04-16T05:12:08.822Z,90.03
2023-04-16T05:13:08.800Z,89.93
2023-04-16T05:14:08.761Z,89.83
2023-04-16T05:15:08.772Z,89.62
2023-04-16T05:16:08.765Z,89.42
2023-04-16T05:17:08.775Z,89.31
2023-04-16T05:18:08.712Z,89.31
2023-04-16T05:19:09.008Z,89.42
2023-04-16T05:20:08.712Z,89.21
2023-04-16T05:21:08.700Z,89.21
2023-04-16T05:22:08.704Z,89.31
2023-04-16T05:23:08.678Z,89.31
2023-04-16T05:24:08.643Z,89.42
2023-04-16T05:25:08.661Z,89.42
2023-04-16T05:26:08.621Z,89.21
2023-04-16T05:27:08.603Z,89.21
2023-04-16T05:28:08.595Z,89.21
2023-04-16T05:29:08.858Z,89.31
2023-04-16T05:30:08.587Z,89.42
2023-04-16T05:31:08.586Z,89.52
2023-04-16T05:32:08.541Z,89.72
2023-04-16T05:33:08.586Z,89.83
2023-04-16T05:34:08.507Z,90.34
2023-04-16T05:35:08.491Z,90.91
2023-04-16T05:36:08.611Z,91.33
2023-04-16T05:37:08.478Z,91.53
2023-04-16T05:38:08.456Z,91.84
2023-04-16T05:39:08.761Z,92.55
2023-04-16T05:40:08.448Z,92.97
2023-04-16T05:41:08.447Z,93.38
2023-04-16T05:42:08.394Z,93.79
2023-04-16T05:43:08.383Z,94.10
2023-04-16T05:44:08.384Z,94.40
2023-04-16T05:45:08.392Z,94.81
2023-04-16T05:46:08.371Z,95.12
2023-04-16T05:47:08.336Z,95.32
2023-04-16T05:48:08.325Z,95.32
2023-04-16T05:49:08.567Z,95.53
2023-04-16T05:50:08.346Z,95.74
2023-04-16T05:51:08.274Z,95.74
2023-04-16T05:52:08.283Z,95.84
2023-04-16T05:53:08.281Z,95.84
2023-04-16T05:54:08.277Z,95.94
2023-04-16T05:55:08.258Z,95.94
2023-04-16T05:56:08.222Z,95.90
2023-04-16T05:57:08.239Z,95.90
2023-04-16T05:58:08.184Z,95.90
2023-04-16T05:59:08.428Z,95.90
2023-04-16T06:00:08.189Z,95.79
2023-04-16T06:01:08.142Z,95.90
2023-04-16T06:02:08.199Z,95.79
2023-04-16T06:03:08.294Z,95.69
2023-04-16T06:04:08.217Z,95.59
2023-04-16T06:05:08.140Z,95.59
2023-04-16T06:06:08.081Z,95.59
2023-04-16T06:07:08.074Z,95.49
2023-04-16T06:08:08.045Z,95.49
2023-04-16T06:09:08.445Z,95.59
2023-04-16T06:10:08.049Z,95.49
2023-04-16T06:11:08.010Z,95.39
2023-04-16T06:12:08.004Z,95.39
2023-04-16T06:13:07.989Z,95.39
2023-04-16T06:14:07.988Z,95.49
2023-04-16T06:15:07.979Z,95.69
2023-04-16T06:16:07.973Z,95.69
2023-04-16T06:17:07.940Z,95.69
2023-04-16T06:18:07.955Z,95.69
2023-04-16T06:19:08.132Z,95.69
2023-04-16T06:20:07.894Z,95.79
2023-04-16T06:21:07.899Z,95.79
2023-04-16T06:22:07.879Z,95.65
2023-04-16T06:23:07.861Z,95.54
2023-04-16T06:24:07.874Z,95.54
2023-04-16T06:25:07.835Z,95.44
2023-04-16T06:26:07.816Z,95.34
2023-04-16T06:27:07.822Z,95.34
2023-04-16T06:28:07.848Z,95.34
2023-04-16T06:29:08.022Z,95.34
2023-04-16T06:30:07.766Z,95.34
2023-04-16T06:31:07.797Z,95.54
2023-04-16T06:32:07.766Z,95.54
2023-04-16T06:33:07.742Z,95.44
2023-04-16T06:34:07.724Z,95.44
2023-04-16T06:35:07.697Z,95.34
2023-04-16T06:36:07.697Z,95.24
2023-04-16T06:37:10.379Z,95.14
2023-04-16T06:38:07.672Z,95.03
2023-04-16T06:39:07.913Z,94.93
2023-04-16T06:40:07.680Z,94.78
2023-04-16T06:41:07.655Z,94.68
2023-04-16T06:42:07.661Z,94.68
2023-04-16T06:43:07.637Z,94.78
2023-04-16T06:44:07.581Z,94.78
2023-04-16T06:45:07.560Z,94.78
2023-04-16T06:46:07.591Z,94.78
2023-04-16T06:47:07.650Z,94.78
2023-04-16T06:48:07.589Z,94.89
2023-04-16T06:49:07.625Z,94.89
2023-04-16T06:50:07.499Z,94.78
2023-04-16T06:51:07.532Z,94.68
2023-04-16T06:52:07.510Z,94.58
2023-04-16T06:53:07.472Z,94.48
2023-04-16T06:54:07.467Z,94.37
2023-04-16T06:55:07.463Z,94.33
2023-04-16T06:56:07.411Z,94.33
2023-04-16T06:57:07.439Z,94.23
2023-04-16T06:58:07.410Z,94.12
2023-04-16T06:59:07.774Z,94.12
2023-04-16T07:00:07.396Z,93.92
2023-04-16T07:01:07.516Z,93.71
2023-04-16T07:02:07.400Z,93.62
2023-04-16T07:03:07.585Z,93.51
2023-04-16T07:04:07.375Z,93.41
2023-04-16T07:05:07.332Z,93.26
2023-04-16T07:06:07.302Z,93.16
2023-04-16T07:07:07.540Z,93.06
2023-04-16T07:08:07.276Z,92.96
2023-04-16T07:09:07.344Z,93.06
2023-04-16T07:10:07.246Z,93.06
2023-04-16T07:11:07.224Z,92.96
2023-04-16T07:12:07.266Z,93.06
2023-04-16T07:13:07.189Z,93.01
2023-04-16T07:14:07.302Z,92.91
2023-04-16T07:15:07.205Z,92.60
2023-04-16T07:16:07.208Z,92.50
2023-04-16T07:17:07.160Z,92.40
2023-04-16T07:18:07.184Z,92.50
2023-04-16T07:19:07.230Z,92.40
2023-04-16T07:20:07.101Z,92.30
2023-04-16T07:21:07.117Z,92.10
2023-04-16T07:22:07.082Z,91.99
2023-04-16T07:23:07.066Z,91.85
2023-04-16T07:24:07.067Z,91.85
2023-04-16T07:25:07.830Z,91.85
2023-04-16T07:26:07.035Z,91.74
2023-04-16T07:27:07.041Z,91.54
2023-04-16T07:28:07.011Z,91.44
2023-04-16T07:29:07.082Z,91.23
2023-04-16T07:30:06.978Z,91.03
2023-04-16T07:31:06.977Z,90.92
2023-04-16T07:32:07.040Z,90.82
2023-04-16T07:33:06.955Z,90.82
2023-04-16T07:34:06.936Z,90.68
2023-04-16T07:35:06.923Z,90.68
2023-04-16T07:36:06.917Z,90.78
2023-04-16T07:37:06.883Z,90.68
2023-04-16T07:38:06.917Z,90.68
2023-04-16T07:39:07.106Z,90.68
2023-04-16T07:40:06.858Z,90.58
2023-04-16T07:41:06.829Z,90.27
2023-04-16T07:42:06.822Z,89.97
2023-04-16T07:43:06.810Z,89.65
2023-04-16T07:44:06.829Z,89.56
2023-04-16T07:45:06.785Z,89.56
2023-04-16T07:46:06.901Z,89.41
2023-04-16T07:47:06.843Z,89.20
2023-04-16T07:48:06.750Z,89.00
2023-04-16T07:49:06.785Z,88.90
2023-04-16T07:50:06.721Z,89.00
2023-04-16T07:51:06.705Z,89.11
2023-04-16T07:52:06.692Z,89.00
2023-04-16T07:53:06.774Z,88.79
2023-04-16T07:54:06.695Z,88.59
2023-04-16T07:55:06.665Z,88.39
2023-04-16T07:56:06.638Z,88.49
2023-04-16T07:57:06.663Z,88.55
2023-04-16T07:58:06.615Z,88.55
2023-04-16T07:59:21.205Z,88.45
2023-04-16T08:00:07.615Z,88.55
2023-04-16T08:01:06.583Z,88.55
2023-04-16T08:02:06.588Z,88.55
2023-04-16T08:03:06.861Z,88.55
2023-04-16T08:04:06.654Z,88.55
2023-04-16T08:05:06.574Z,88.45
2023-04-16T08:06:06.509Z,88.45
2023-04-16T08:07:06.510Z,88.10
2023-04-16T08:08:06.504Z,87.70
2023-04-16T08:09:06.470Z,87.49
2023-04-16T08:10:06.475Z,87.59
2023-04-16T08:11:06.454Z,87.70
2023-04-16T08:12:06.453Z,87.70
2023-04-16T08:13:06.447Z,87.59
2023-04-16T08:14:06.432Z,87.49
2023-04-16T08:15:06.403Z,87.49
2023-04-16T08:16:06.410Z,87.45
2023-04-16T08:17:06.352Z,87.45
2023-04-16T08:18:06.388Z,87.45
2023-04-16T08:19:06.350Z,87.45
2023-04-16T08:20:06.335Z,87.35
2023-04-16T08:21:06.314Z,87.24
2023-04-16T08:22:06.297Z,87.24
2023-04-16T08:23:06.283Z,87.14
2023-04-16T08:24:06.289Z,87.10
2023-04-16T08:25:06.278Z,86.90
2023-04-16T08:26:06.265Z,86.90
2023-04-16T08:27:17.941Z,86.69
2023-04-16T08:28:07.227Z,86.59
2023-04-16T08:29:06.222Z,86.49
2023-04-16T08:30:06.192Z,86.29
2023-04-16T08:31:06.226Z,86.29
2023-04-16T08:32:06.171Z,85.68
2023-04-16T08:33:06.197Z,85.47
2023-04-16T08:34:06.221Z,85.43
2023-04-16T08:35:06.124Z,85.22
2023-04-16T08:36:06.143Z,85.13
2023-04-16T08:37:06.111Z,84.41
2023-04-16T08:38:06.088Z,84.31
2023-04-16T08:39:06.095Z,84.11
2023-04-16T08:40:06.061Z,84.00
2023-04-16T08:41:06.053Z,84.00
2023-04-16T08:42:06.190Z,83.49
2023-04-16T08:43:06.030Z,82.47
2023-04-16T08:44:06.069Z,82.17
2023-04-16T08:45:06.047Z,82.37
2023-04-16T08:46:06.097Z,82.78
2023-04-16T08:47:06.166Z,82.68
2023-04-16T08:48:06.050Z,82.17
2023-04-16T08:49:05.937Z,82.37
2023-04-16T08:50:05.934Z,82.37
2023-04-16T08:51:05.917Z,82.47
2023-04-16T08:52:05.920Z,82.57
2023-04-16T08:53:06.579Z,82.68
2023-04-16T08:54:05.893Z,82.88
2023-04-16T08:55:05.872Z,82.98
2023-04-16T08:56:05.852Z,82.88
2023-04-16T08:57:17.406Z,82.94
2023-04-16T08:58:05.838Z,83.15
2023-04-16T08:59:05.812Z,82.74
2023-04-16T09:00:05.830Z,80.70
2023-04-16T09:01:05.789Z,81.11
2023-04-16T09:02:05.830Z,80.80
2023-04-16T09:03:05.993Z,80.70
2023-04-16T09:04:05.921Z,80.80
2023-04-16T09:05:05.721Z,80.80
2023-04-16T09:06:05.729Z,81.58
2023-04-16T09:07:05.703Z,82.29
2023-04-16T09:08:05.696Z,82.29
2023-04-16T09:09:05.696Z,82.60
2023-04-16T09:10:05.704Z,82.87
2023-04-16T09:11:05.676Z,82.05
2023-04-16T09:12:05.677Z,81.85
2023-04-16T09:13:05.627Z,82.05
2023-04-16T09:14:05.641Z,82.12
2023-04-16T09:15:06.060Z,82.12
2023-04-16T09:16:05.626Z,81.98
2023-04-16T09:17:05.582Z,81.87
2023-04-16T09:18:05.613Z,81.57
2023-04-16T09:19:05.584Z,81.33
2023-04-16T09:20:05.529Z,81.12
2023-04-16T09:21:05.522Z,80.92
2023-04-16T09:22:05.529Z,80.62
2023-04-16T09:23:05.520Z,80.78
2023-04-16T09:24:05.498Z,80.58
2023-04-16T09:25:05.482Z,78.04
2023-04-16T09:26:05.500Z,79.16
2023-04-16T09:27:05.452Z,78.64
2023-04-16T09:28:05.474Z,77.70
2023-04-16T09:29:05.413Z,77.70
2023-04-16T09:30:05.429Z,78.20
2023-04-16T09:31:05.392Z,77.49
2023-04-16T09:32:05.514Z,77.59
2023-04-16T09:33:05.395Z,77.86
2023-04-16T09:34:05.477Z,77.66
2023-04-16T09:35:05.344Z,77.45
2023-04-16T09:36:05.344Z,77.45
2023-04-16T09:37:05.379Z,77.36
2023-04-16T09:38:05.364Z,78.03
2023-04-16T09:39:05.357Z,78.13
2023-04-16T09:40:05.282Z,77.62
2023-04-16T09:41:05.261Z,77.01
2023-04-16T09:42:05.345Z,76.47
2023-04-16T09:43:05.235Z,76.06
2023-04-16T09:44:05.475Z,75.76
2023-04-16T09:45:06.237Z,74.81
2023-04-16T09:46:08.137Z,74.30
2023-04-16T09:47:05.216Z,75.12
2023-04-16T09:48:05.237Z,75.52
2023-04-16T09:49:05.141Z,75.22
2023-04-16T09:50:05.143Z,73.49
2023-04-16T09:51:05.121Z,73.97
2023-04-16T09:52:05.127Z,74.37
2023-04-16T09:53:05.107Z,74.37
2023-04-16T09:54:05.116Z,74.27
2023-04-16T09:55:05.084Z,73.53
2023-04-16T09:56:05.136Z,73.43
2023-04-16T09:57:05.055Z,72.81
2023-04-16T09:58:05.049Z,72.21
2023-04-16T09:59:05.029Z,71.70
2023-04-16T10:00:05.013Z,72.21
2023-04-16T10:01:05.023Z,73.22
2023-04-16T10:02:14.844Z,73.22
2023-04-16T10:03:06.030Z,74.00
2023-04-16T10:04:05.029Z,73.90
2023-04-16T10:05:04.942Z,73.09
2023-04-16T10:06:04.932Z,72.48
2023-04-16T10:07:04.974Z,72.17
2023-04-16T10:08:04.915Z,71.26
2023-04-16T10:09:04.899Z,71.77
2023-04-16T10:10:04.922Z,71.91
2023-04-16T10:11:04.887Z,71.20
2023-04-16T10:12:04.884Z,71.20
2023-04-16T10:13:04.849Z,69.78
2023-04-16T10:14:04.832Z,69.27
2023-04-16T10:15:04.825Z,69.71
2023-04-16T10:16:04.845Z,70.42
2023-04-16T10:17:04.840Z,70.52
2023-04-16T10:18:04.889Z,70.72
2023-04-16T10:19:04.775Z,70.93
2023-04-16T10:20:04.777Z,70.72
2023-04-16T10:21:04.787Z,70.52
2023-04-16T10:22:04.748Z,70.62
2023-04-16T10:23:04.722Z,71.23
2023-04-16T10:24:04.700Z,71.23
2023-04-16T10:25:04.685Z,71.13
2023-04-16T10:26:04.701Z,72.24
2023-04-16T10:27:04.655Z,72.14
2023-04-16T10:28:04.647Z,71.13
2023-04-16T10:29:04.644Z,71.23
2023-04-16T10:30:04.621Z,71.13
2023-04-16T10:31:04.667Z,71.64
2023-04-16T10:32:04.587Z,71.53
2023-04-16T10:33:04.598Z,70.93
2023-04-16T10:34:04.565Z,71.44
2023-04-16T10:35:04.591Z,72.14
2023-04-16T10:36:07.526Z,71.94
2023-04-16T10:37:04.534Z,72.34
2023-04-16T10:38:04.521Z,72.65
2023-04-16T10:39:04.505Z,72.65
2023-04-16T10:40:04.499Z,72.08
2023-04-16T10:41:04.489Z,71.16
2023-04-16T10:42:04.471Z,71.26
2023-04-16T10:43:04.458Z,71.67
2023-04-16T10:44:04.445Z,72.08
2023-04-16T10:45:04.431Z,72.78
2023-04-16T10:46:04.455Z,72.58
2023-04-16T10:47:04.406Z,73.19
2023-04-16T10:48:04.386Z,72.58
2023-04-16T10:49:04.363Z,72.38
2023-04-16T10:50:04.357Z,72.72
2023-04-16T10:51:04.358Z,72.92
2023-04-16T10:52:04.342Z,72.61
2023-04-16T10:53:04.306Z,73.12
2023-04-16T10:54:04.318Z,73.12
2023-04-16T10:55:04.301Z,73.22
2023-04-16T10:56:04.293Z,73.73
2023-04-16T10:57:04.716Z,74.65
2023-04-16T10:58:04.255Z,74.74
2023-04-16T10:59:04.242Z,74.85
2023-04-16T11:00:04.251Z,74.24
2023-04-16T11:01:04.220Z,73.73
2023-04-16T11:02:04.323Z,73.12
2023-04-16T11:03:04.386Z,73.63
2023-04-16T11:04:04.451Z,73.63
2023-04-16T11:05:04.291Z,73.93
2023-04-16T11:06:04.176Z,74.07
2023-04-16T11:07:04.165Z,74.38
2023-04-16T11:08:04.115Z,73.77
2023-04-16T11:09:04.122Z,74.68
2023-04-16T11:10:04.122Z,74.88
2023-04-16T11:11:04.100Z,74.78
2023-04-16T11:12:04.067Z,74.58
2023-04-16T11:13:04.058Z,74.78
2023-04-16T11:14:04.041Z,75.29
2023-04-16T11:15:04.050Z,74.88
2023-04-16T11:16:04.070Z,73.97
2023-04-16T11:17:04.018Z,73.97
2023-04-16T11:18:04.098Z,73.97
2023-04-16T11:19:03.968Z,73.77
2023-04-16T11:20:03.970Z,73.57
2023-04-16T11:21:04.968Z,73.36
2023-04-16T11:22:03.933Z,73.77
2023-04-16T11:23:03.925Z,74.38
2023-04-16T11:24:03.908Z,74.51
2023-04-16T11:25:03.948Z,74.92
2023-04-16T11:26:03.926Z,75.22
2023-04-16T11:27:03.873Z,75.43
2023-04-16T11:28:03.850Z,75.12
2023-04-16T11:29:03.843Z,74.10
2023-04-16T11:30:03.836Z,74.41
2023-04-16T11:31:03.836Z,74.51
2023-04-16T11:32:03.812Z,74.71
2023-04-16T11:33:03.885Z,75.02
2023-04-16T11:34:03.774Z,74.92
2023-04-16T11:35:03.829Z,74.92
2023-04-16T11:36:03.768Z,75.22
2023-04-16T11:37:03.744Z,74.92
2023-04-16T11:38:03.727Z,74.41
2023-04-16T11:39:03.791Z,74.92
2023-04-16T11:40:03.720Z,75.32
2023-04-16T11:41:03.702Z,75.12
2023-04-16T11:42:03.712Z,75.83
2023-04-16T11:43:03.674Z,76.03
2023-04-16T11:44:03.655Z,77.05
2023-04-16T11:45:24.850Z,77.19
2023-04-16T11:46:10.258Z,76.37
2023-04-16T11:47:04.663Z,76.88
2023-04-16T11:48:03.664Z,77.09
2023-04-16T11:49:03.615Z,76.58
2023-04-16T11:50:03.613Z,75.76
2023-04-16T11:51:03.556Z,75.56
2023-04-16T11:52:03.535Z,75.67
2023-04-16T11:53:03.557Z,75.87
2023-04-16T11:54:03.517Z,76.07
2023-04-16T11:55:03.520Z,76.31
2023-04-16T11:56:03.510Z,76.31
2023-04-16T11:57:03.468Z,76.82
2023-04-16T11:58:03.474Z,77.22
2023-04-16T11:59:03.451Z,77.06
2023-04-16T12:00:04.953Z,78.17
2023-04-16T12:01:03.441Z,77.26
2023-04-16T12:02:03.479Z,77.67
2023-04-16T12:03:03.566Z,77.40
2023-04-16T12:04:03.567Z,78.11
2023-04-16T12:05:03.406Z,78.82
2023-04-16T12:06:03.364Z,79.74
2023-04-16T12:07:03.343Z,79.74
2023-04-16T12:08:03.353Z,80.35
2023-04-16T12:09:03.332Z,80.65
2023-04-16T12:10:03.308Z,80.35
2023-04-16T12:11:03.328Z,80.45
2023-04-16T12:12:03.270Z,80.96
2023-04-16T12:13:03.260Z,81.16
2023-04-16T12:14:03.263Z,80.49
2023-04-16T12:15:03.348Z,80.29
2023-04-16T12:16:03.229Z,80.38
2023-04-16T12:17:03.271Z,81.10
2023-04-16T12:18:03.267Z,80.59
2023-04-16T12:19:03.187Z,80.38
2023-04-16T12:20:03.200Z,80.69
2023-04-16T12:21:03.169Z,81.65
2023-04-16T12:22:03.152Z,81.54
2023-04-16T12:23:03.140Z,81.04
2023-04-16T12:24:03.115Z,79.81
2023-04-16T12:25:03.132Z,80.11
2023-04-16T12:26:03.191Z,81.04
2023-04-16T12:27:03.335Z,81.68
2023-04-16T12:28:03.135Z,82.09
2023-04-16T12:29:03.060Z,82.09
2023-04-16T12:30:03.071Z,82.09
2023-04-16T12:31:03.086Z,81.68
2023-04-16T12:32:03.028Z,81.88
2023-04-16T12:33:03.018Z,81.88
2023-04-16T12:34:03.022Z,81.99
2023-04-16T12:35:03.001Z,81.99
2023-04-16T12:36:02.963Z,82.54
2023-04-16T12:37:02.954Z,82.03
2023-04-16T12:38:02.933Z,82.54
2023-04-16T12:39:02.934Z,82.03
2023-04-16T12:40:02.937Z,82.94
2023-04-16T12:41:02.898Z,83.25
2023-04-16T12:42:02.887Z,82.43
2023-04-16T12:43:02.866Z,82.64
2023-04-16T12:44:02.854Z,82.13
2023-04-16T12:45:02.848Z,82.33
2023-04-16T12:46:04.286Z,83.56
2023-04-16T12:47:02.819Z,83.86
2023-04-16T12:48:02.850Z,82.43
2023-04-16T12:49:02.782Z,82.33
2023-04-16T12:50:02.806Z,82.84
2023-04-16T12:51:02.771Z,82.94
2023-04-16T12:52:02.742Z,82.94